Flight Track Log - Related Links

Times and Time Zones

All times are in EDT time to prevent confusion due to time zone crossing. See the SWA286 flight status page for this flight to view local times or setup timezone preferences in your user account.

Time Position Orientation Groundspeed Altitude Reporting Facility
EDT Latitude Longitude Course Direction KTS MPH feet Rate Location/Type
Fri 05:11:25 PM 39.1167 -76.6833 142° Southeast 250 288 4,400  Level Potomac TRACON
Fri 05:12:25 PM 39.0833 -76.6167 123° Southeast 252 290 7,400 2,900 Climbing Potomac TRACON
Fri 05:13:25 PM 39.0167 -76.5667 150° Southeast 301 346 10,200 2,900 Climbing Potomac TRACON
Fri 05:14:25 PM 38.9167 -76.5333 165° South 344 396 13,200 1,983 Climbing Potomac TRACON
Fri 05:15:20 PM 38.8333 -76.5000 163° South 358 412 14,000 1,109 Climbing Potomac TRACON
Fri 05:17:29 PM 38.6611 -76.5861 201° Southwest 347 399 16,600 1,746 Climbing Washington Center
Fri 05:18:29 PM 38.5589 -76.5978 185° South 348 400 19,500 1,700 Climbing Washington Center
Fri 05:19:29 PM 38.4547 -76.6044 183° South 368 423 20,000 250 Climbing Washington Center
Fri 05:20:29 PM 38.3544 -76.6136 184° South 374 430 20,000  Level Washington Center
Fri 05:21:29 PM 38.2542 -76.6203 183° South 369 425 20,000 650 Level Washington Center
Fri 05:22:29 PM 38.1542 -76.6294 184° South 369 425 21,300 1,850 Climbing Washington Center
Fri 05:23:29 PM 38.0478 -76.6386 184° South 369 425 23,700 2,500 Climbing Washington Center
Fri 05:24:29 PM 37.9392 -76.6450 183° South 382 440 26,300 2,550 Climbing Washington Center
Fri 05:25:29 PM 37.8308 -76.6278 173° South 388 447 28,800 1,850 Climbing Washington Center
Fri 05:26:29 PM 37.7225 -76.6158 175° South 393 452 30,000 600 Climbing Washington Center
Fri 05:27:29 PM 37.6119 -76.6142 179° South 393 452 30,000 150 Level Washington Center
Fri 05:28:29 PM 37.5136 -76.6497 196° South 381 438 30,300 1,200 Climbing Washington Center
Fri 05:29:29 PM 37.4111 -76.6875 196° South 381 438 32,400 2,050 Climbing Washington Center
Fri 05:30:29 PM 37.3128 -76.7225 196° South 381 438 34,400 2,350 Climbing Washington Center
Fri 05:31:29 PM 37.2206 -76.7578 197° South 369 425 37,100 1,800 Climbing Washington Center
Fri 05:32:29 PM 37.1306 -76.7875 195° South 347 399 38,000 450 Climbing Washington Center
Fri 05:33:29 PM 37.0406 -76.8225 197° South 340 391 38,000  Level Washington Center
Fri 05:34:29 PM 36.9506 -76.8550 196° South 340 391 38,000  Level Washington Center
Fri 05:35:29 PM 36.8583 -76.8872 196° South 340 391 38,000  Level Washington Center
Fri 05:36:29 PM 36.7664 -76.9194 196° South 340 391 38,000  Level Washington Center
Fri 05:37:29 PM 36.6761 -76.9517 196° South 340 391 38,000  Level Washington Center
Fri 05:38:29 PM 36.5842 -76.9836 196° South 345 397 38,000  Level Washington Center
Fri 05:39:29 PM 36.4939 -77.0156 196° South 345 397 38,000  Level Washington Center
Fri 05:40:29 PM 36.3914 -77.0525 196° South 345 397 38,000  Level Washington Center
Fri 05:41:29 PM 36.3011 -77.0842 196° South 345 397 38,000  Level Washington Center
Fri 05:42:29 PM 36.2089 -77.1133 194° South 345 397 38,000  Level Washington Center
Fri 05:43:29 PM 36.1292 -77.1453 198° South 345 397 38,000  Level Washington Center
Fri 05:44:29 PM 36.0372 -77.1769 196° South 339 390 38,000  Level Washington Center
Fri 05:45:29 PM 35.9447 -77.2083 195° South 344 396 38,000  Level Washington Center
Fri 05:46:29 PM 35.8506 -77.2372 194° South 344 396 38,000  Level Washington Center
Fri 05:47:29 PM 35.7583 -77.2736 198° South 344 396 38,000  Level Washington Center
Fri 05:48:29 PM 35.6639 -77.3050 195° South 344 396 38,000  Level Washington Center
Fri 05:49:29 PM 35.5697 -77.3361 195° South 349 402 38,000  Level Washington Center
Fri 05:50:29 PM 35.4731 -77.3672 195° South 349 402 38,000  Level Washington Center
Fri 05:51:29 PM 35.3808 -77.4008 197° South 354 407 38,000  Level Washington Center
Fri 05:52:29 PM 35.2886 -77.4317 195° South 354 407 38,000  Level Washington Center
Fri 05:53:29 PM 35.1942 -77.4628 195° South 354 407 38,000  Level Washington Center
Fri 05:54:29 PM 35.0997 -77.4961 196° South 360 414 38,000  Level Washington Center
Fri 05:55:29 PM 35.0053 -77.5267 195° South 360 414 38,000  Level Washington Center
Fri 05:56:29 PM 34.9150 -77.5600 197° South 360 414 38,000  Level Washington Center
Fri 05:57:29 PM 34.8103 -77.5931 195° South 355 409 38,000  Level Washington Center
Fri 05:58:29 PM 34.7306 -77.6214 196° South 355 409 38,000  Level Washington Center
Fri 05:59:29 PM 34.6381 -77.6544 196° South 350 403 38,000  Level Washington Center
Fri 06:00:29 PM 34.5458 -77.6847 195° South 345 397 38,000  Level Washington Center
Fri 06:01:29 PM 34.4533 -77.7153 195° South 345 397 38,000  Level Washington Center
Fri 06:02:29 PM 34.3589 -77.7481 196° South 345 397 38,000  Level Washington Center
Fri 06:03:29 PM 34.2603 -77.7781 194° South 352 405 38,000  Level Washington Center
Fri 06:05:04 PM 34.0997 -77.8269 194° South 376 433 38,000  Level Jacksonville Center
Fri 06:06:04 PM 34.0031 -77.8628 197° South 376 433 38,000  Level Jacksonville Center
Fri 06:07:04 PM 33.9106 -77.8931 195° South 370 426 38,000  Level Jacksonville Center
Fri 06:08:04 PM 33.8156 -77.9186 193° South 365 420 38,000  Level Jacksonville Center
Fri 06:09:04 PM 33.7189 -77.9514 196° South 365 420 38,000  Level Jacksonville Center
Fri 06:10:04 PM 33.6222 -77.9867 197° South 365 420 38,000  Level Jacksonville Center
Fri 06:11:04 PM 33.5253 -78.0169 195° South 360 414 38,000  Level Jacksonville Center
Fri 06:12:04 PM 33.4306 -78.0497 196° South 360 414 38,000  Level Jacksonville Center
Fri 06:13:04 PM 33.3356 -78.0797 195° South 355 409 38,000  Level Jacksonville Center
Fri 06:14:04 PM 33.2389 -78.1122 196° South 355 409 38,000  Level Jacksonville Center
Fri 06:15:04 PM 33.1439 -78.1419 195° South 355 409 38,000  Level Jacksonville Center
Fri 06:16:04 PM 33.0469 -78.1719 195° South 355 409 38,000  Level Jacksonville Center
Fri 06:17:04 PM 32.9542 -78.2017 195° South 355 409 38,000  Level Jacksonville Center
Fri 06:18:04 PM 32.8592 -78.2311 195° South 355 409 38,000  Level Jacksonville Center
Fri 06:19:04 PM 32.7622 -78.2608 194° South 355 409 38,000  Level Jacksonville Center
Fri 06:20:04 PM 32.6675 -78.2956 197° South 355 409 38,000  Level Jacksonville Center
Fri 06:21:04 PM 32.5725 -78.3225 193° South 355 409 38,000  Level Jacksonville Center
Fri 06:22:04 PM 32.4775 -78.3542 196° South 355 409 38,000  Level Jacksonville Center
Fri 06:23:04 PM 32.3828 -78.3836 195° South 355 409 38,000  Level Jacksonville Center
Fri 06:24:04 PM 32.3003 -78.4147 198° South 355 409 38,000  Level Jacksonville Center
Fri 06:25:04 PM 32.2053 -78.4439 195° South 355 409 38,000  Level Jacksonville Center
Fri 06:26:04 PM 32.1103 -78.4731 195° South 355 409 38,000  Level Jacksonville Center
Fri 06:27:04 PM 32.0072 -78.5075 196° South 355 409 38,000  Level Jacksonville Center
Fri 06:28:04 PM 31.9100 -78.5364 194° South 355 409 38,000  Level Jacksonville Center
Fri 06:29:04 PM 31.8150 -78.5656 195° South 355 409 38,000  Level Jacksonville Center
Fri 06:30:04 PM 31.7200 -78.5967 196° South 355 409 38,000  Level Jacksonville Center
Fri 06:31:04 PM 31.6272 -78.6278 196° South 355 409 38,000  Level Jacksonville Center
Fri 06:32:04 PM 31.5300 -78.6567 194° South 355 409 38,000  Level Jacksonville Center
Fri 06:33:04 PM 31.4411 -78.6850 195° South 355 409 38,000  Level Jacksonville Center
Fri 06:34:04 PM 31.3503 -78.7133 195° South 350 403 38,000  Level Jacksonville Center
Fri 06:35:04 PM 31.2572 -78.7419 195° South 350 403 38,000  Level Jacksonville Center
Fri 06:36:04 PM 31.1642 -78.7703 195° South 350 403 38,000  Level Jacksonville Center
Fri 06:37:04 PM 31.0753 -78.7961 194° South 344 396 38,000  Level Jacksonville Center
Fri 06:38:04 PM 30.9825 -78.8267 196° South 349 402 38,000  Level Jacksonville Center
Fri 06:39:04 PM 30.8892 -78.8525 193° South 344 396 38,000  Level Jacksonville Center
Fri 06:41:08 PM 30.7158 -78.9081 195° South 335 386 38,000  Level Miami Center
Fri 06:42:08 PM 30.6300 -78.9353 195° South 343 395 38,000  Level Miami Center
Fri 06:43:08 PM 30.5336 -78.9622 194° South 343 395 38,000  Level Miami Center
Fri 06:44:08 PM 30.4478 -78.9894 195° South 338 389 38,000  Level Miami Center
Fri 06:45:08 PM 30.3597 -79.0239 199° South 338 389 38,000  Level Miami Center
Fri 06:46:08 PM 30.2758 -79.0606 201° Southwest 338 389 38,000  Level Miami Center
Fri 06:47:08 PM 30.1878 -79.0994 201° Southwest 338 389 38,000 -300 Level Miami Center
Fri 06:48:08 PM 30.0975 -79.1358 199° South 333 383 37,400 -750 Descending Miami Center
Fri 06:49:08 PM 30.0178 -79.1725 202° Southwest 333 383 36,500 -950 Descending Miami Center
Fri 06:50:08 PM 29.9356 -79.2186 206° Southwest 328 377 35,500 -1,000 Descending Miami Center
Fri 06:51:08 PM 29.8558 -79.2553 202° Southwest 323 372 34,500 -950 Descending Miami Center
Fri 06:52:08 PM 29.7678 -79.2842 196° South 323 372 33,600 -900 Descending Miami Center
Fri 06:53:08 PM 29.6836 -79.3256 203° Southwest 323 372 32,700 -800 Descending Miami Center
Fri 06:54:08 PM 29.6014 -79.3664 203° Southwest 330 380 32,000 -350 Descending Miami Center
Fri 06:55:08 PM 29.5317 -79.4292 218° Southwest 330 380 32,000  Level Miami Center
Fri 06:56:08 PM 29.4533 -79.4869 213° Southwest 330 380 32,000  Level Miami Center
Fri 06:57:08 PM 29.3811 -79.5519 218° Southwest 336 387 32,000  Level Miami Center
Fri 06:58:08 PM 29.3050 -79.6144 216° Southwest 341 392 32,000  Level Miami Center
Fri 06:59:08 PM 29.2328 -79.6792 218° Southwest 346 398 32,000 -550 Level Miami Center
Fri 07:00:08 PM 29.1586 -79.7389 215° Southwest 346 398 30,900 -1,050 Descending Miami Center
Fri 07:01:08 PM 29.0906 -79.8036 220° Southwest 334 384 29,900 -1,000 Descending Miami Center
Fri 07:02:08 PM 29.0183 -79.8633 216° Southwest 328 377 28,900 -1,000 Descending Miami Center
Fri 07:03:08 PM 28.9503 -79.9233 218° Southwest 323 372 27,900 -1,000 Descending Miami Center
Fri 07:04:08 PM 28.8803 -79.9783 215° Southwest 318 366 26,900 -1,000 Descending Miami Center
Fri 07:05:08 PM 28.8142 -80.0381 218° Southwest 318 366 25,900 -1,000 Descending Miami Center
Fri 07:06:08 PM 28.7442 -80.0950 216° Southwest 318 366 24,900 -900 Descending Miami Center
Fri 07:07:08 PM 28.6697 -80.1617 218° Southwest 329 379 24,100 -700 Descending Miami Center
Fri 07:08:08 PM 28.5928 -80.2350 220° Southwest 329 379 23,500 -750 Descending Miami Center
Fri 07:09:08 PM 28.5572 -80.3214 245° Southwest 334 384 22,600 -950 Descending Miami Center
Fri 07:10:08 PM 28.5133 -80.4144 242° Southwest 334 384 21,600 -1,050 Descending Miami Center
Fri 07:11:08 PM 28.4669 -80.5169 243° Southwest 334 384 20,500 -800 Descending Miami Center
Fri 07:12:08 PM 28.4228 -80.6097 242° Southwest 335 386 20,000 -250 Descending Miami Center
Fri 07:13:08 PM 28.3786 -80.7028 242° Southwest 335 386 20,000  Level Miami Center
Fri 07:14:08 PM 28.3344 -80.7931 241° Southwest 335 386 20,000  Level Miami Center
Fri 07:15:08 PM 28.2922 -80.8883 243° Southwest 335 386 20,000  Level Miami Center
Fri 07:16:08 PM 28.2478 -80.9811 241° Southwest 340 391 20,000  Level Miami Center
Fri 07:17:08 PM 28.2033 -81.0736 241° Southwest 340 391 20,000  Level Miami Center
Fri 07:18:08 PM 28.1608 -81.1686 243° Southwest 340 391 20,000  Level Miami Center
Fri 07:19:08 PM 28.1161 -81.2633 242° Southwest 340 391 20,000  Level Miami Center
Fri 07:20:08 PM 28.0761 -81.3464 241° Southwest 345 397 20,000  Level Miami Center
Fri 07:21:08 PM 27.9822 -81.4086 210° Southwest 345 397 20,000  Level Miami Center
Fri 07:22:08 PM 27.8694 -81.4158 183° South 354 407 20,000 -250 Level Miami Center
Fri 07:23:08 PM 27.7606 -81.4256 185° South 386 444 19,500 -750 Descending Miami Center
Fri 07:24:08 PM 27.6581 -81.4308 183° South 408 470 18,500 -1,000 Descending Miami Center
Fri 07:25:08 PM 27.5472 -81.4403 184° South 408 470 17,500 -1,000 Descending Miami Center
Fri 07:26:08 PM 27.4364 -81.4478 183° South 408 470 16,500 -1,000 Descending Miami Center
Fri 07:27:08 PM 27.3317 -81.4575 185° South 408 470 15,500 -1,750 Descending Miami Center
Fri 07:28:08 PM 27.2250 -81.4650 184° South 396 456 13,000 -2,450 Descending Miami Center
Fri 07:29:08 PM 27.1244 -81.4750 185° South 385 443 10,600 -1,550 Descending Miami Center
Fri 07:30:08 PM 27.0242 -81.4825 184° South 370 426 9,900 -350 Descending Miami Center
Fri 07:31:08 PM 26.9272 -81.4414 159° South 346 398 9,900 -650 Level Miami Center
Fri 07:32:08 PM 26.8533 -81.4014 154° Southeast 313 360 8,600 -1,500 Descending Miami Center
Fri 07:33:08 PM 26.7869 -81.3919 173° South 299 344 6,900 -1,550 Descending Miami Center
Fri 07:34:08 PM 26.7433 -81.4483 229° Southwest 216 249 5,500 -1,400 Descending Miami Center
Fri 07:35:08 PM 26.7017 -81.5117 234° Southwest 233 268 4,100 -1,600 Descending Miami Center
Fri 07:36:08 PM 26.6533 -81.5817 232° Southwest 258 297 2,300 -1,200 Descending Miami Center
Fri 07:37:08 PM 26.6075 -81.6428 230° Southwest 263 303 1,700 8,850 Descending Miami Center
Fri 07:38:08 PM 26.5639 -81.7058 232° Southwest 263 303 20,000 18,300 Climbing Miami Center
Fri 07:40:00 PM 26.5333 -81.7500 318° Northwest  Level FlightAware Approximate
Fri 07:47:00 PM 26.5362 -81.7552 318° Northwest  Level Estimated
Fri 07:48:00 PM 26.5333 -81.7500 318° Northwest  Level FlightAware Approximate

Login

Don't have an account? Register now (free) for customized features, flight alerts, and more!